sensor_id;sensor_type;location;lat;lon;timestamp;pressure;altitude;pressure_sealevel;temperature;humidity
21781;BME280;52576;53.614;9.894;2023-08-24T00:01:59;101612.16;;;18.06;85.22
21781;BME280;52576;53.614;9.894;2023-08-24T00:04:03;101616.03;;;18.02;85.13
21781;BME280;52576;53.614;9.894;2023-08-24T00:06:06;101622.56;;;17.97;85.52
21781;BME280;52576;53.614;9.894;2023-08-24T00:08:10;101622.81;;;17.94;85.63
21781;BME280;52576;53.614;9.894;2023-08-24T00:10:14;101615.16;;;17.91;85.66
21781;BME280;52576;53.614;9.894;2023-08-24T00:12:17;101623.38;;;17.88;85.67
21781;BME280;52576;53.614;9.894;2023-08-24T00:14:20;101613.97;;;17.84;85.62
21781;BME280;52576;53.614;9.894;2023-08-24T00:16:25;101614.25;;;17.81;86.09
21781;BME280;52576;53.614;9.894;2023-08-24T00:18:28;101612.81;;;17.77;85.91
21781;BME280;52576;53.614;9.894;2023-08-24T00:20:30;101609.69;;;17.72;86.23
21781;BME280;52576;53.614;9.894;2023-08-24T00:22:34;101609.94;;;17.69;86.34
21781;BME280;52576;53.614;9.894;2023-08-24T00:24:36;101613.00;;;17.65;86.69
21781;BME280;52576;53.614;9.894;2023-08-24T00:26:39;101612.38;;;17.61;86.62
21781;BME280;52576;53.614;9.894;2023-08-24T00:28:42;101608.31;;;17.57;87.01
21781;BME280;52576;53.614;9.894;2023-08-24T00:30:45;101608.56;;;17.54;86.90
21781;BME280;52576;53.614;9.894;2023-08-24T00:32:50;101614.09;;;17.51;87.45
21781;BME280;52576;53.614;9.894;2023-08-24T00:34:53;101609.91;;;17.48;87.28
21781;BME280;52576;53.614;9.894;2023-08-24T00:36:56;101608.34;;;17.46;87.85
21781;BME280;52576;53.614;9.894;2023-08-24T00:38:59;101604.97;;;17.44;87.66
21781;BME280;52576;53.614;9.894;2023-08-24T00:41:03;101605.09;;;17.42;88.10
21781;BME280;52576;53.614;9.894;2023-08-24T00:43:06;101606.91;;;17.42;88.10
21781;BME280;52576;53.614;9.894;2023-08-24T00:45:10;101602.72;;;17.39;88.16
21781;BME280;52576;53.614;9.894;2023-08-24T00:47:15;101606.34;;;17.38;87.98
21781;BME280;52576;53.614;9.894;2023-08-24T00:49:20;101598.50;;;17.37;88.08
21781;BME280;52576;53.614;9.894;2023-08-24T00:51:24;101602.13;;;17.36;88.28
21781;BME280;52576;53.614;9.894;2023-08-24T00:53:29;101609.34;;;17.34;88.63
21781;BME280;52576;53.614;9.894;2023-08-24T00:55:32;101613.81;;;17.33;88.82
21781;BME280;52576;53.614;9.894;2023-08-24T00:57:37;101605.03;;;17.33;88.65
21781;BME280;52576;53.614;9.894;2023-08-24T00:59:40;101614.06;;;17.30;89.15
21781;BME280;52576;53.614;9.894;2023-08-24T01:01:44;101616.84;;;17.28;88.83
21781;BME280;52576;53.614;9.894;2023-08-24T01:03:48;101618.75;;;17.26;88.83
21781;BME280;52576;53.614;9.894;2023-08-24T01:05:53;101614.56;;;17.24;88.93
21781;BME280;52576;53.614;9.894;2023-08-24T01:07:56;101616.59;;;17.20;88.80
21781;BME280;52576;53.614;9.894;2023-08-24T01:09:59;101614.22;;;17.17;89.30
21781;BME280;52576;53.614;9.894;2023-08-24T01:12:06;101618.09;;;17.13;89.39
21781;BME280;52576;53.614;9.894;2023-08-24T01:14:18;101622.66;;;17.11;89.17
21781;BME280;52576;53.614;9.894;2023-08-24T01:16:25;101623.88;;;17.07;89.33
21781;BME280;52576;53.614;9.894;2023-08-24T01:18:31;101621.47;;;17.04;89.50
21781;BME280;52576;53.614;9.894;2023-08-24T01:20:36;101619.06;;;17.01;89.58
21781;BME280;52576;53.614;9.894;2023-08-24T01:22:47;101624.59;;;16.98;90.04
21781;BME280;52576;53.614;9.894;2023-08-24T01:25:05;101625.69;;;16.95;89.87
21781;BME280;52576;53.614;9.894;2023-08-24T01:27:11;101618.84;;;16.93;90.10
21781;BME280;52576;53.614;9.894;2023-08-24T01:29:16;101622.44;;;16.92;90.09
21781;BME280;52576;53.614;9.894;2023-08-24T01:31:19;101623.41;;;16.91;90.38
21781;BME280;52576;53.614;9.894;2023-08-24T01:33:22;101635.13;;;16.88;90.37
21781;BME280;52576;53.614;9.894;2023-08-24T01:35:28;101623.09;;;16.84;90.19
21781;BME280;52576;53.614;9.894;2023-08-24T01:37:31;101622.47;;;16.81;90.44
21781;BME280;52576;53.614;9.894;2023-08-24T01:39:42;101624.41;;;16.79;90.55
21781;BME280;52576;53.614;9.894;2023-08-24T01:41:49;101629.94;;;16.76;90.62
21781;BME280;52576;53.614;9.894;2023-08-24T01:43:58;101626.56;;;16.74;90.25
21781;BME280;52576;53.614;9.894;2023-08-24T01:46:04;101620.66;;;16.70;90.58
21781;BME280;52576;53.614;9.894;2023-08-24T01:48:09;101621.75;;;16.68;90.59
21781;BME280;52576;53.614;9.894;2023-08-24T01:50:13;101620.31;;;16.63;90.48
21781;BME280;52576;53.614;9.894;2023-08-24T01:52:17;101624.03;;;16.61;90.90
21781;BME280;52576;53.614;9.894;2023-08-24T01:54:20;101619.94;;;16.57;90.81
21781;BME280;52576;53.614;9.894;2023-08-24T01:56:23;101621.00;;;16.54;91.15
21781;BME280;52576;53.614;9.894;2023-08-24T01:58:27;101612.34;;;16.52;91.17
21781;BME280;52576;53.614;9.894;2023-08-24T02:00:31;101615.13;;;16.51;91.13
21781;BME280;52576;53.614;9.894;2023-08-24T02:02:35;101614.50;;;16.47;91.04
21781;BME280;52576;53.614;9.894;2023-08-24T02:04:38;101611.25;;;16.44;91.25
21781;BME280;52576;53.614;9.894;2023-08-24T02:06:41;101602.72;;;16.40;91.39
21781;BME280;52576;53.614;9.894;2023-08-24T02:08:44;101609.22;;;16.36;91.14
21781;BME280;52576;53.614;9.894;2023-08-24T02:10:47;101605.13;;;16.32;91.53
21781;BME280;52576;53.614;9.894;2023-08-24T02:12:50;101605.47;;;16.27;91.88
21781;BME280;52576;53.614;9.894;2023-08-24T02:14:53;101606.56;;;16.25;91.82
21781;BME280;52576;53.614;9.894;2023-08-24T02:16:58;101606.78;;;16.22;92.32
21781;BME280;52576;53.614;9.894;2023-08-24T02:19:01;101610.50;;;16.19;92.29
21781;BME280;52576;53.614;9.894;2023-08-24T02:21:07;101608.94;;;16.17;92.38
21781;BME280;52576;53.614;9.894;2023-08-24T02:23:12;101601.25;;;16.14;92.44
21781;BME280;52576;53.614;9.894;2023-08-24T02:25:16;101601.50;;;16.11;92.01
21781;BME280;52576;53.614;9.894;2023-08-24T02:27:19;101605.34;;;16.07;92.23
21781;BME280;52576;53.614;9.894;2023-08-24T02:29:22;101601.13;;;16.04;92.58
21781;BME280;52576;53.614;9.894;2023-08-24T02:31:25;101590.78;;;16.01;92.79
21781;BME280;52576;53.614;9.894;2023-08-24T02:33:31;101597.16;;;15.99;92.56
21781;BME280;52576;53.614;9.894;2023-08-24T02:35:34;101586.78;;;15.95;92.78
21781;BME280;52576;53.614;9.894;2023-08-24T02:37:38;101596.53;;;15.95;92.96
21781;BME280;52576;53.614;9.894;2023-08-24T02:39:41;101594.00;;;15.93;93.27
21781;BME280;52576;53.614;9.894;2023-08-24T02:41:44;101591.34;;;15.93;93.18
21781;BME280;52576;53.614;9.894;2023-08-24T02:43:47;101587.03;;;15.92;93.25
21781;BME280;52576;53.614;9.894;2023-08-24T02:45:49;101587.16;;;15.91;93.05
21781;BME280;52576;53.614;9.894;2023-08-24T02:47:52;101587.25;;;15.89;93.03
21781;BME280;52576;53.614;9.894;2023-08-24T02:49:56;101582.19;;;15.86;93.12
21781;BME280;52576;53.614;9.894;2023-08-24T02:51:59;101583.31;;;15.84;93.43
21781;BME280;52576;53.614;9.894;2023-08-24T02:54:03;101584.38;;;15.81;93.35
21781;BME280;52576;53.614;9.894;2023-08-24T02:56:06;101586.28;;;15.79;93.65
21781;BME280;52576;53.614;9.894;2023-08-24T02:58:09;101583.66;;;15.79;93.45
21781;BME280;52576;53.614;9.894;2023-08-24T03:00:12;101590.84;;;15.77;93.79
21781;BME280;52576;53.614;9.894;2023-08-24T03:02:16;101585.69;;;15.76;94.05
21781;BME280;52576;53.614;9.894;2023-08-24T03:04:19;101583.16;;;15.74;93.57
21781;BME280;52576;53.614;9.894;2023-08-24T03:06:27;101584.22;;;15.72;93.79
21781;BME280;52576;53.614;9.894;2023-08-24T03:08:31;101582.53;;;15.71;93.75
21781;BME280;52576;53.614;9.894;2023-08-24T03:10:35;101580.84;;;15.70;94.00
21781;BME280;52576;53.614;9.894;2023-08-24T03:12:40;101583.59;;;15.68;93.86
21781;BME280;52576;53.614;9.894;2023-08-24T03:14:43;101574.94;;;15.66;94.00
21781;BME280;52576;53.614;9.894;2023-08-24T03:16:47;101577.59;;;15.66;94.56
21781;BME280;52576;53.614;9.894;2023-08-24T03:18:51;101580.22;;;15.66;94.30
21781;BME280;52576;53.614;9.894;2023-08-24T03:20:54;101574.09;;;15.66;94.57
21781;BME280;52576;53.614;9.894;2023-08-24T03:22:58;101569.78;;;15.65;94.63
21781;BME280;52576;53.614;9.894;2023-08-24T03:25:01;101572.53;;;15.63;94.25
21781;BME280;52576;53.614;9.894;2023-08-24T03:27:04;101574.44;;;15.61;94.63
21781;BME280;52576;53.614;9.894;2023-08-24T03:29:07;101571.09;;;15.59;94.24
21781;BME280;52576;53.614;9.894;2023-08-24T03:31:09;101573.97;;;15.56;94.24
21781;BME280;52576;53.614;9.894;2023-08-24T03:33:12;101577.53;;;15.55;94.31
21781;BME280;52576;53.614;9.894;2023-08-24T03:35:16;101570.78;;;15.51;94.33
21781;BME280;52576;53.614;9.894;2023-08-24T03:37:19;101576.06;;;15.51;94.31
21781;BME280;52576;53.614;9.894;2023-08-24T03:39:23;101565.72;;;15.48;94.57
21781;BME280;52576;53.614;9.894;2023-08-24T03:41:26;101567.66;;;15.46;94.22
21781;BME280;52576;53.614;9.894;2023-08-24T03:43:31;101570.41;;;15.44;94.75
21781;BME280;52576;53.614;9.894;2023-08-24T03:45:34;101566.19;;;15.42;94.38
21781;BME280;52576;53.614;9.894;2023-08-24T03:47:39;101567.13;;;15.41;94.71
21781;BME280;52576;53.614;9.894;2023-08-24T03:49:42;101570.84;;;15.38;94.75
21781;BME280;52576;53.614;9.894;2023-08-24T03:51:46;101567.38;;;15.38;94.60
21781;BME280;52576;53.614;9.894;2023-08-24T03:53:49;101566.63;;;15.36;94.81
21781;BME280;52576;53.614;9.894;2023-08-24T03:55:54;101570.22;;;15.35;94.72
21781;BME280;52576;53.614;9.894;2023-08-24T03:57:57;101568.53;;;15.34;94.98
21781;BME280;52576;53.614;9.894;2023-08-24T04:00:01;101565.19;;;15.32;94.80
21781;BME280;52576;53.614;9.894;2023-08-24T04:02:14;101570.47;;;15.32;94.79
21781;BME280;52576;53.614;9.894;2023-08-24T04:04:18;101574.09;;;15.31;94.89
21781;BME280;52576;53.614;9.894;2023-08-24T04:06:21;101572.41;;;15.30;95.10
21781;BME280;52576;53.614;9.894;2023-08-24T04:08:24;101570.72;;;15.28;94.95
21781;BME280;52576;53.614;9.894;2023-08-24T04:10:26;101563.75;;;15.27;95.33
21781;BME280;52576;53.614;9.894;2023-08-24T04:12:34;101556.78;;;15.26;94.88
21781;BME280;52576;53.614;9.894;2023-08-24T04:14:37;101565.53;;;15.27;94.99
21781;BME280;52576;53.614;9.894;2023-08-24T04:16:40;101556.78;;;15.26;95.08
21781;BME280;52576;53.614;9.894;2023-08-24T04:18:44;101563.75;;;15.27;95.24
21781;BME280;52576;53.614;9.894;2023-08-24T04:20:47;101568.19;;;15.27;95.49
21781;BME280;52576;53.614;9.894;2023-08-24T04:22:50;101556.78;;;15.26;95.08
21781;BME280;52576;53.614;9.894;2023-08-24T04:24:53;101560.38;;;15.25;94.94
21781;BME280;52576;53.614;9.894;2023-08-24T04:26:56;101556.88;;;15.25;95.33
21781;BME280;52576;53.614;9.894;2023-08-24T04:29:00;101557.00;;;15.23;95.14
21781;BME280;52576;53.614;9.894;2023-08-24T04:31:04;101559.75;;;15.22;94.97
21781;BME280;52576;53.614;9.894;2023-08-24T04:33:07;101577.50;;;15.20;95.13
21781;BME280;52576;53.614;9.894;2023-08-24T04:35:10;101569.69;;;15.18;94.97
21781;BME280;52576;53.614;9.894;2023-08-24T04:37:13;101561.03;;;15.16;95.02
21781;BME280;52576;53.614;9.894;2023-08-24T04:39:15;101561.03;;;15.16;95.24
21781;BME280;52576;53.614;9.894;2023-08-24T04:41:20;101556.72;;;15.15;94.95
21781;BME280;52576;53.614;9.894;2023-08-24T04:43:24;101561.25;;;15.13;95.27
21781;BME280;52576;53.614;9.894;2023-08-24T04:45:29;101562.22;;;15.12;95.33
21781;BME280;52576;53.614;9.894;2023-08-24T04:47:32;101564.13;;;15.10;95.01
21781;BME280;52576;53.614;9.894;2023-08-24T04:49:35;101570.34;;;15.09;95.16
21781;BME280;52576;53.614;9.894;2023-08-24T04:51:38;101574.69;;;15.10;95.27
21781;BME280;52576;53.614;9.894;2023-08-24T04:53:41;101575.63;;;15.09;95.42
21781;BME280;52576;53.614;9.894;2023-08-24T04:55:45;101573.72;;;15.11;95.31
21781;BME280;52576;53.614;9.894;2023-08-24T04:57:48;101572.03;;;15.10;95.45
21781;BME280;52576;53.614;9.894;2023-08-24T04:59:52;101580.91;;;15.09;95.17
21781;BME280;52576;53.614;9.894;2023-08-24T05:01:56;101570.34;;;15.09;95.23
21781;BME280;52576;53.614;9.894;2023-08-24T05:04:00;101579.22;;;15.08;95.34
21781;BME280;52576;53.614;9.894;2023-08-24T05:06:04;101587.16;;;15.08;95.44
21781;BME280;52576;53.614;9.894;2023-08-24T05:08:07;101588.09;;;15.07;95.58
21781;BME280;52576;53.614;9.894;2023-08-24T05:10:14;101589.78;;;15.08;95.67
21781;BME280;52576;53.614;9.894;2023-08-24T05:12:17;101589.78;;;15.08;95.71
21781;BME280;52576;53.614;9.894;2023-08-24T05:14:20;101586.19;;;15.09;95.53
21781;BME280;52576;53.614;9.894;2023-08-24T05:16:23;101591.47;;;15.09;95.34
21781;BME280;52576;53.614;9.894;2023-08-24T05:18:28;101595.81;;;15.10;95.54
21781;BME280;52576;53.614;9.894;2023-08-24T05:20:30;101593.06;;;15.12;95.43
21781;BME280;52576;53.614;9.894;2023-08-24T05:22:33;101584.06;;;15.14;95.91
21781;BME280;52576;53.614;9.894;2023-08-24T05:24:36;101588.28;;;15.17;95.79
21781;BME280;52576;53.614;9.894;2023-08-24T05:26:39;101592.50;;;15.19;96.04
21781;BME280;52576;53.614;9.894;2023-08-24T05:28:41;101591.31;;;15.23;96.03
21781;BME280;52576;53.614;9.894;2023-08-24T05:30:44;101593.75;;;15.26;96.21
21781;BME280;52576;53.614;9.894;2023-08-24T05:32:47;101604.94;;;15.30;95.93
21781;BME280;52576;53.614;9.894;2023-08-24T05:34:52;101613.44;;;15.34;96.17
21781;BME280;52576;53.614;9.894;2023-08-24T05:36:55;101616.72;;;15.37;96.02
21781;BME280;52576;53.614;9.894;2023-08-24T05:38:58;101608.44;;;15.42;95.99
21781;BME280;52576;53.614;9.894;2023-08-24T05:41:07;101604.63;;;15.46;95.90
21781;BME280;52576;53.614;9.894;2023-08-24T05:43:10;101595.53;;;15.50;96.22
21781;BME280;52576;53.614;9.894;2023-08-24T05:45:14;101594.22;;;15.55;96.01
21781;BME280;52576;53.614;9.894;2023-08-24T05:47:17;101596.53;;;15.60;95.88
21781;BME280;52576;53.614;9.894;2023-08-24T05:49:20;101589.13;;;15.65;96.06
21781;BME280;52576;53.614;9.894;2023-08-24T05:51:24;101587.94;;;15.69;95.84
21781;BME280;52576;53.614;9.894;2023-08-24T05:53:27;101586.75;;;15.73;95.92
21781;BME280;52576;53.614;9.894;2023-08-24T05:55:30;101595.19;;;15.78;95.56
21781;BME280;52576;53.614;9.894;2023-08-24T05:57:33;101594.00;;;15.82;95.50
21781;BME280;52576;53.614;9.894;2023-08-24T05:59:36;101596.16;;;15.88;95.52
21781;BME280;52576;53.614;9.894;2023-08-24T06:01:40;101588.72;;;15.93;95.50
21781;BME280;52576;53.614;9.894;2023-08-24T06:03:44;101596.19;;;16.00;95.47
21781;BME280;52576;53.614;9.894;2023-08-24T06:05:47;101601.97;;;16.05;95.55
21781;BME280;52576;53.614;9.894;2023-08-24T06:07:52;101597.03;;;16.11;95.41
21781;BME280;52576;53.614;9.894;2023-08-24T06:09:56;101601.00;;;16.17;95.32
21781;BME280;52576;53.614;9.894;2023-08-24T06:11:59;101598.84;;;16.22;95.09
21781;BME280;52576;53.614;9.894;2023-08-24T06:14:02;101593.09;;;16.28;94.69
21781;BME280;52576;53.614;9.894;2023-08-24T06:16:05;101585.66;;;16.33;94.85
21781;BME280;52576;53.614;9.894;2023-08-24T06:18:09;101580.81;;;16.38;94.39
21781;BME280;52576;53.614;9.894;2023-08-24T06:20:13;101574.09;;;16.45;94.16
21781;BME280;52576;53.614;9.894;2023-08-24T06:22:15;101567.34;;;16.52;93.88
21781;BME280;52576;53.614;9.894;2023-08-24T06:24:19;101563.28;;;16.59;93.95
21781;BME280;52576;53.614;9.894;2023-08-24T06:26:22;101563.50;;;16.68;93.57
21781;BME280;52576;53.614;9.894;2023-08-24T06:28:24;101559.41;;;16.75;93.26
21781;BME280;52576;53.614;9.894;2023-08-24T06:30:27;101559.66;;;16.83;93.02
21781;BME280;52576;53.614;9.894;2023-08-24T06:32:31;101552.03;;;16.89;92.47
21781;BME280;52576;53.614;9.894;2023-08-24T06:34:33;101552.38;;;16.96;92.13
21781;BME280;52576;53.614;9.894;2023-08-24T06:36:36;101549.38;;;17.01;91.62
21781;BME280;52576;53.614;9.894;2023-08-24T06:38:39;101549.72;;;17.07;91.11
21781;BME280;52576;53.614;9.894;2023-08-24T06:40:43;101550.91;;;17.14;90.92
21781;BME280;52576;53.614;9.894;2023-08-24T06:42:46;101550.50;;;17.19;90.63
21781;BME280;52576;53.614;9.894;2023-08-24T06:44:50;101557.81;;;17.26;89.77
21781;BME280;52576;53.614;9.894;2023-08-24T06:46:53;101553.97;;;17.30;89.46
21781;BME280;52576;53.614;9.894;2023-08-24T06:48:56;101552.50;;;17.38;88.96
21781;BME280;52576;53.614;9.894;2023-08-24T06:50:59;101552.69;;;17.46;88.47
21781;BME280;52576;53.614;9.894;2023-08-24T06:53:02;101540.59;;;17.53;88.11
21781;BME280;52576;53.614;9.894;2023-08-24T06:55:07;101536.47;;;17.60;88.12
21781;BME280;52576;53.614;9.894;2023-08-24T06:57:12;101539.63;;;17.65;87.61
21781;BME280;52576;53.614;9.894;2023-08-24T06:59:15;101539.91;;;17.72;86.70
21781;BME280;52576;53.614;9.894;2023-08-24T07:01:18;101535.91;;;17.77;86.53
21781;BME280;52576;53.614;9.894;2023-08-24T07:03:21;101531.91;;;17.83;86.01
21781;BME280;52576;53.614;9.894;2023-08-24T07:05:25;101526.94;;;17.89;85.37
21781;BME280;52576;53.614;9.894;2023-08-24T07:07:29;101532.66;;;17.94;85.07
21781;BME280;52576;53.614;9.894;2023-08-24T07:09:31;101527.78;;;18.00;84.50
21781;BME280;52576;53.614;9.894;2023-08-24T07:11:34;101520.28;;;18.05;84.14
21781;BME280;52576;53.614;9.894;2023-08-24T07:13:38;101530.38;;;18.11;83.80
21781;BME280;52576;53.614;9.894;2023-08-24T07:15:42;101528.44;;;18.13;83.13
21781;BME280;52576;53.614;9.894;2023-08-24T07:17:45;101535.56;;;18.12;83.06
21781;BME280;52576;53.614;9.894;2023-08-24T07:19:48;101538.06;;;18.14;82.38
21781;BME280;52576;53.614;9.894;2023-08-24T07:21:51;101535.16;;;18.17;82.40
21781;BME280;52576;53.614;9.894;2023-08-24T07:23:54;101535.72;;;18.20;82.03
21781;BME280;52576;53.614;9.894;2023-08-24T07:25:59;101536.28;;;18.24;81.63
21781;BME280;52576;53.614;9.894;2023-08-24T07:28:02;101536.84;;;18.27;81.23
21781;BME280;52576;53.614;9.894;2023-08-24T07:30:09;101531.16;;;18.32;80.72
21781;BME280;52576;53.614;9.894;2023-08-24T07:32:31;101533.28;;;18.38;80.54
21781;BME280;52576;53.614;9.894;2023-08-24T07:34:34;101533.72;;;18.43;79.75
21781;BME280;52576;53.614;9.894;2023-08-24T07:36:37;101523.50;;;18.48;79.63
21781;BME280;52576;53.614;9.894;2023-08-24T07:38:41;101528.28;;;18.54;78.95
21781;BME280;52576;53.614;9.894;2023-08-24T07:40:44;101527.78;;;18.60;78.88
21781;BME280;52576;53.614;9.894;2023-08-24T07:42:48;101527.25;;;18.67;78.72
21781;BME280;52576;53.614;9.894;2023-08-24T07:44:52;101525.69;;;18.74;78.65
21781;BME280;52576;53.614;9.894;2023-08-24T07:46:57;101533.84;;;18.82;77.50
21781;BME280;52576;53.614;9.894;2023-08-24T07:49:00;101527.13;;;18.87;76.33
21781;BME280;52576;53.614;9.894;2023-08-24T07:51:03;101526.59;;;18.93;76.06
21781;BME280;52576;53.614;9.894;2023-08-24T07:53:06;101527.00;;;18.98;75.64
21781;BME280;52576;53.614;9.894;2023-08-24T07:55:09;101524.63;;;19.05;75.24
21781;BME280;52576;53.614;9.894;2023-08-24T07:57:12;101521.44;;;19.11;74.89
21781;BME280;52576;53.614;9.894;2023-08-24T07:59:15;101521.84;;;19.16;74.49
21781;BME280;52576;53.614;9.894;2023-08-24T08:01:18;101526.44;;;19.24;74.29
21781;BME280;52576;53.614;9.894;2023-08-24T08:03:23;101522.25;;;19.31;74.24
21781;BME280;52576;53.614;9.894;2023-08-24T08:05:26;101516.25;;;19.39;73.72
21781;BME280;52576;53.614;9.894;2023-08-24T08:07:29;101502.41;;;19.45;73.16
21781;BME280;52576;53.614;9.894;2023-08-24T08:09:32;101503.50;;;19.52;72.36
21781;BME280;52576;53.614;9.894;2023-08-24T08:11:36;101503.94;;;19.57;72.02
21781;BME280;52576;53.614;9.894;2023-08-24T08:13:39;101496.38;;;19.62;71.30
21781;BME280;52576;53.614;9.894;2023-08-24T08:15:42;101487.13;;;19.66;71.17
21781;BME280;52576;53.614;9.894;2023-08-24T08:17:44;101498.03;;;19.73;71.50
21781;BME280;52576;53.614;9.894;2023-08-24T08:19:49;101487.63;;;19.79;71.64
21781;BME280;52576;53.614;9.894;2023-08-24T08:21:52;101486.91;;;19.87;71.37
21781;BME280;52576;53.614;9.894;2023-08-24T08:23:55;101489.84;;;19.93;70.60
21781;BME280;52576;53.614;9.894;2023-08-24T08:25:58;101483.25;;;19.97;70.61
21781;BME280;52576;53.614;9.894;2023-08-24T08:28:01;101487.13;;;20.03;70.36
21781;BME280;52576;53.614;9.894;2023-08-24T08:30:05;101486.69;;;20.08;70.05
21781;BME280;52576;53.614;9.894;2023-08-24T08:32:07;101480.78;;;20.14;70.11
21781;BME280;52576;53.614;9.894;2023-08-24T08:34:10;101477.53;;;20.20;68.99
21781;BME280;52576;53.614;9.894;2023-08-24T08:36:14;101475.13;;;20.26;68.15
21781;BME280;52576;53.614;9.894;2023-08-24T08:38:17;101483.34;;;20.33;68.17
21781;BME280;52576;53.614;9.894;2023-08-24T08:40:25;101481.66;;;20.42;68.47
21781;BME280;52576;53.614;9.894;2023-08-24T08:42:30;101487.22;;;20.48;68.67
21781;BME280;52576;53.614;9.894;2023-08-24T08:44:34;101481.97;;;20.56;67.67
21781;BME280;52576;53.614;9.894;2023-08-24T08:46:38;101476.19;;;20.61;66.40
21781;BME280;52576;53.614;9.894;2023-08-24T08:48:42;101480.94;;;20.67;66.08
21781;BME280;52576;53.614;9.894;2023-08-24T08:50:48;101473.47;;;20.71;65.94
21781;BME280;52576;53.614;9.894;2023-08-24T08:52:53;101473.03;;;20.75;65.44
21781;BME280;52576;53.614;9.894;2023-08-24T08:54:56;101476.25;;;20.79;65.46
21781;BME280;52576;53.614;9.894;2023-08-24T08:57:00;101476.88;;;20.81;64.76
21781;BME280;52576;53.614;9.894;2023-08-24T08:59:07;101471.56;;;20.81;65.08
21781;BME280;52576;53.614;9.894;2023-08-24T09:01:12;101480.94;;;20.85;65.10
21781;BME280;52576;53.614;9.894;2023-08-24T09:03:17;101481.47;;;20.88;64.67
21781;BME280;52576;53.614;9.894;2023-08-24T09:05:20;101470.34;;;20.93;64.43
21781;BME280;52576;53.614;9.894;2023-08-24T09:07:24;101466.41;;;20.97;64.45
21781;BME280;52576;53.614;9.894;2023-08-24T09:09:29;101464.81;;;21.04;64.74
21781;BME280;52576;53.614;9.894;2023-08-24T09:11:34;101471.88;;;21.13;63.82
21781;BME280;52576;53.614;9.894;2023-08-24T09:13:37;101474.03;;;21.27;62.73
21781;BME280;52576;53.614;9.894;2023-08-24T09:15:40;101482.13;;;21.44;62.03
21781;BME280;52576;53.614;9.894;2023-08-24T09:17:43;101479.88;;;21.57;61.13
21781;BME280;52576;53.614;9.894;2023-08-24T09:19:45;101489.31;;;21.69;60.50
21781;BME280;52576;53.614;9.894;2023-08-24T09:21:48;101487.88;;;21.83;60.60
21781;BME280;52576;53.614;9.894;2023-08-24T09:23:55;101495.47;;;21.95;60.63
21781;BME280;52576;53.614;9.894;2023-08-24T09:26:00;101481.22;;;22.05;60.58
21781;BME280;52576;53.614;9.894;2023-08-24T09:28:03;101488.56;;;22.11;60.44
21781;BME280;52576;53.614;9.894;2023-08-24T09:30:10;101489.91;;;22.15;59.97
21781;BME280;52576;53.614;9.894;2023-08-24T09:32:15;101475.25;;;22.19;60.15
21781;BME280;52576;53.614;9.894;2023-08-24T09:34:19;101483.47;;;22.25;60.33
21781;BME280;52576;53.614;9.894;2023-08-24T09:36:23;101486.31;;;22.32;60.55
21781;BME280;52576;53.614;9.894;2023-08-24T09:38:26;101496.34;;;22.38;60.42
21781;BME280;52576;53.614;9.894;2023-08-24T09:40:29;101490.84;;;22.40;59.45
21781;BME280;52576;53.614;9.894;2023-08-24T09:42:37;101485.50;;;22.40;59.39
21781;BME280;52576;53.614;9.894;2023-08-24T09:44:43;101476.97;;;22.36;59.41
21781;BME280;52576;53.614;9.894;2023-08-24T09:46:47;101473.66;;;22.34;59.20
21781;BME280;52576;53.614;9.894;2023-08-24T09:48:53;101466.28;;;22.36;58.70
21781;BME280;52576;53.614;9.894;2023-08-24T09:51:01;101469.94;;;22.35;58.62
21781;BME280;52576;53.614;9.894;2023-08-24T09:53:08;101473.66;;;22.34;58.76
21781;BME280;52576;53.614;9.894;2023-08-24T09:55:19;101466.97;;;22.30;58.83
21781;BME280;52576;53.614;9.894;2023-08-24T09:57:24;101451.94;;;22.29;59.14
21781;BME280;52576;53.614;9.894;2023-08-24T09:59:31;101454.28;;;22.32;58.72
21781;BME280;52576;53.614;9.894;2023-08-24T10:01:35;101453.94;;;22.35;58.58
21781;BME280;52576;53.614;9.894;2023-08-24T10:03:40;101458.63;;;22.41;58.71
21781;BME280;52576;53.614;9.894;2023-08-24T10:05:44;101457.97;;;22.47;58.04
21781;BME280;52576;53.614;9.894;2023-08-24T10:07:59;101442.47;;;22.51;57.78
21781;BME280;52576;53.614;9.894;2023-08-24T10:10:04;101437.81;;;22.53;57.96
21781;BME280;52576;53.614;9.894;2023-08-24T10:12:13;101433.97;;;22.55;58.43
21781;BME280;52576;53.614;9.894;2023-08-24T10:14:22;101427.94;;;22.61;58.45
21781;BME280;52576;53.614;9.894;2023-08-24T10:16:29;101426.63;;;22.74;58.38
21781;BME280;52576;53.614;9.894;2023-08-24T10:18:32;101431.88;;;22.83;57.99
21781;BME280;52576;53.614;9.894;2023-08-24T10:20:36;101435.03;;;22.95;58.07
21781;BME280;52576;53.614;9.894;2023-08-24T10:22:39;101439.22;;;23.06;58.18
21781;BME280;52576;53.614;9.894;2023-08-24T10:24:44;101434.84;;;23.13;57.52
21781;BME280;52576;53.614;9.894;2023-08-24T10:26:47;101428.81;;;23.19;57.48
21781;BME280;52576;53.614;9.894;2023-08-24T10:28:51;101408.44;;;23.26;57.02
21781;BME280;52576;53.614;9.894;2023-08-24T10:30:57;101389.88;;;23.32;57.20
21781;BME280;52576;53.614;9.894;2023-08-24T10:33:03;101384.31;;;23.42;57.76
21781;BME280;52576;53.614;9.894;2023-08-24T10:35:08;101379.13;;;23.49;57.04
21781;BME280;52576;53.614;9.894;2023-08-24T10:37:14;101380.31;;;23.54;56.78
21781;BME280;52576;53.614;9.894;2023-08-24T10:39:18;101379.81;;;23.59;55.95
21781;BME280;52576;53.614;9.894;2023-08-24T10:41:26;101381.97;;;23.63;55.87
21781;BME280;52576;53.614;9.894;2023-08-24T10:43:28;101379.75;;;23.67;56.86
21781;BME280;52576;53.614;9.894;2023-08-24T10:45:54;101386.75;;;23.76;55.38
21781;BME280;52576;53.614;9.894;2023-08-24T10:47:58;101386.06;;;23.82;55.70
21781;BME280;52576;53.614;9.894;2023-08-24T10:50:03;101382.69;;;23.88;56.15